createdAt,value
2018-03-20T00:00:15.666Z,28.12
2018-03-20T00:02:42.112Z,37.80
2018-03-20T00:05:09.267Z,27.30
2018-03-20T00:07:36.437Z,19.42
2018-03-20T00:10:03.733Z,17.98
2018-03-20T00:12:30.880Z,13.20
2018-03-20T00:14:57.452Z,16.55
2018-03-20T00:17:24.591Z,20.73
2018-03-20T00:19:50.978Z,14.75
2018-03-20T00:22:18.131Z,19.27
2018-03-20T00:24:44.566Z,17.02
2018-03-20T00:27:11.735Z,15.70
2018-03-20T00:29:38.184Z,15.20
2018-03-20T00:32:04.610Z,12.20
2018-03-20T00:34:31.014Z,15.23
2018-03-20T00:36:59.057Z,15.13
2018-03-20T00:39:25.477Z,14.55
2018-03-20T00:41:51.897Z,15.40
2018-03-20T00:44:18.415Z,17.75
2018-03-20T00:46:45.687Z,17.10
2018-03-20T00:49:12.840Z,16.62
2018-03-20T00:51:39.316Z,17.48
2018-03-20T00:54:06.482Z,15.75
2018-03-20T00:56:33.670Z,16.55
2018-03-20T00:59:00.091Z,15.57
2018-03-20T01:01:26.523Z,18.73
2018-03-20T01:03:52.923Z,13.00
2018-03-20T01:06:20.098Z,15.15
2018-03-20T01:08:47.269Z,14.30
2018-03-20T01:11:14.489Z,15.52
2018-03-20T01:13:40.887Z,15.93
2018-03-20T01:16:08.036Z,17.02
2018-03-20T01:18:36.944Z,13.68
2018-03-20T01:21:04.118Z,13.90
2018-03-20T01:23:30.547Z,18.42
2018-03-20T01:25:56.964Z,17.80
2018-03-20T01:28:24.239Z,15.93
2018-03-20T01:30:51.414Z,14.52
2018-03-20T01:33:17.855Z,15.98
2018-03-20T01:35:45.024Z,17.20
2018-03-20T01:38:12.146Z,14.15
2018-03-20T01:40:38.580Z,16.48
2018-03-20T01:43:05.004Z,15.82
2018-03-20T01:45:31.580Z,17.98
2018-03-20T01:47:58.857Z,12.43
2018-03-20T01:50:26.019Z,16.50
2018-03-20T01:53:05.371Z,12.93
2018-03-20T01:55:32.508Z,19.62
2018-03-20T01:57:58.998Z,14.20
2018-03-20T02:00:26.182Z,13.50
2018-03-20T02:02:52.556Z,17.98
2018-03-20T02:05:18.966Z,15.40
2018-03-20T02:07:46.255Z,14.60
2018-03-20T02:10:13.448Z,15.68
2018-03-20T02:12:39.877Z,13.13
2018-03-20T02:15:07.027Z,17.25
2018-03-20T02:17:34.205Z,23.52
2018-03-20T02:20:01.172Z,25.95
2018-03-20T02:22:28.822Z,31.98
2018-03-20T02:24:55.214Z,22.73
2018-03-20T02:27:21.604Z,23.40
2018-03-20T02:29:48.012Z,29.50
2018-03-20T02:32:15.898Z,27.35
2018-03-20T02:34:43.070Z,24.77
2018-03-20T02:37:10.214Z,25.02
2018-03-20T02:39:36.623Z,19.02
2018-03-20T02:42:03.831Z,16.00
2018-03-20T02:44:30.264Z,16.67
2018-03-20T02:46:56.680Z,16.40
2018-03-20T02:49:24.576Z,17.45
2018-03-20T02:51:50.983Z,14.77
2018-03-20T02:54:17.517Z,15.85
2018-03-20T02:56:44.696Z,16.27
2018-03-20T02:59:11.130Z,15.23
2018-03-20T03:01:38.309Z,16.95
2018-03-20T03:04:05.452Z,20.35
2018-03-20T03:06:31.876Z,19.35
2018-03-20T03:08:58.401Z,19.17
2018-03-20T03:11:24.802Z,15.73
2018-03-20T03:13:51.204Z,18.12
2018-03-20T03:16:18.343Z,16.33
2018-03-20T03:18:44.765Z,14.95
2018-03-20T03:21:11.234Z,20.65
2018-03-20T03:23:37.646Z,19.45
2018-03-20T03:26:04.802Z,15.23
2018-03-20T03:28:31.230Z,21.02
2018-03-20T03:30:57.743Z,34.80
2018-03-20T03:33:24.662Z,25.45
2018-03-20T03:35:51.232Z,23.80
2018-03-20T03:38:19.113Z,24.35
2018-03-20T03:40:46.309Z,20.92
2018-03-20T03:43:13.469Z,19.55
2018-03-20T03:45:39.889Z,19.15
2018-03-20T03:48:07.913Z,17.87
2018-03-20T03:50:34.317Z,17.85
2018-03-20T03:53:00.724Z,17.10
2018-03-20T03:55:27.877Z,19.80
2018-03-20T03:57:54.285Z,20.42
2018-03-20T04:00:20.713Z,21.15
2018-03-20T04:02:47.127Z,23.73
2018-03-20T04:05:13.648Z,25.35
2018-03-20T04:07:40.100Z,16.77
2018-03-20T04:10:07.286Z,15.80
2018-03-20T04:12:33.714Z,21.02
2018-03-20T04:15:00.987Z,18.60
2018-03-20T04:17:27.390Z,18.35
2018-03-20T04:19:53.835Z,26.17
2018-03-20T04:22:20.239Z,26.02
2018-03-20T04:24:48.172Z,25.70
2018-03-20T04:27:14.577Z,21.40
2018-03-20T04:29:40.975Z,20.42
2018-03-20T04:32:07.412Z,21.45
2018-03-20T04:34:34.560Z,21.50
2018-03-20T04:37:00.979Z,16.40
2018-03-20T04:39:27.405Z,18.85
2018-03-20T04:41:54.543Z,19.58
2018-03-20T04:44:20.914Z,19.40
2018-03-20T04:46:47.389Z,21.75
2018-03-20T04:49:14.533Z,18.73
2018-03-20T04:51:40.959Z,21.65
2018-03-20T04:54:07.400Z,21.83
2018-03-20T04:56:33.804Z,17.00
2018-03-20T04:59:00.228Z,18.08
2018-03-20T05:01:26.637Z,16.70
2018-03-20T05:03:53.818Z,17.75
2018-03-20T05:06:20.983Z,15.23
2018-03-20T05:08:47.399Z,21.60
2018-03-20T05:11:18.201Z,17.73
2018-03-20T05:13:44.645Z,14.63
2018-03-20T05:16:11.920Z,18.90
2018-03-20T05:18:39.962Z,19.15
2018-03-20T05:21:10.296Z,16.30
2018-03-20T05:23:39.585Z,17.92
2018-03-20T05:26:06.059Z,16.58
2018-03-20T05:28:32.598Z,19.27
2018-03-20T05:30:59.051Z,19.02
2018-03-20T05:33:25.533Z,21.48
2018-03-20T05:35:52.020Z,55.05
2018-03-20T05:38:18.541Z,33.25
2018-03-20T05:40:45.018Z,22.37
2018-03-20T05:43:12.182Z,24.48
2018-03-20T05:45:38.660Z,26.05
2018-03-20T05:48:11.071Z,34.95
2018-03-20T05:50:53.295Z,33.15
2018-03-20T05:53:20.502Z,34.47
2018-03-20T05:55:47.027Z,43.15
2018-03-20T05:58:14.173Z,49.65
2018-03-20T06:00:40.568Z,42.22
2018-03-20T06:03:06.968Z,33.38
2018-03-20T06:05:34.052Z,30.83
2018-03-20T06:08:00.487Z,23.80
2018-03-20T06:10:26.942Z,24.05
2018-03-20T06:12:53.385Z,19.08
2018-03-20T06:15:19.782Z,19.50
2018-03-20T06:17:46.207Z,19.50
2018-03-20T06:20:12.695Z,21.67
2018-03-20T06:22:39.129Z,18.67
2018-03-20T06:25:05.596Z,16.92
2018-03-20T06:27:32.906Z,18.02
2018-03-20T06:30:00.097Z,16.00
2018-03-20T06:32:26.645Z,20.58
2018-03-20T06:34:53.151Z,16.70
2018-03-20T06:37:19.577Z,32.33
2018-03-20T06:39:46.018Z,19.48
2018-03-20T06:42:12.418Z,17.08
2018-03-20T06:44:38.836Z,22.55
2018-03-20T06:47:05.248Z,16.95
2018-03-20T06:49:31.644Z,22.67
2018-03-20T06:51:58.070Z,27.58
2018-03-20T06:54:25.263Z,17.80
2018-03-20T06:56:51.695Z,19.95
2018-03-20T06:59:18.109Z,19.77
2018-03-20T07:01:44.641Z,15.57
2018-03-20T07:04:11.030Z,20.20
2018-03-20T07:06:37.456Z,16.63
2018-03-20T07:09:04.091Z,19.50
2018-03-20T07:11:30.650Z,15.03
2018-03-20T07:13:57.053Z,15.27
2018-03-20T07:16:23.481Z,16.13
2018-03-20T07:18:50.020Z,21.77
2018-03-20T07:21:17.196Z,14.87
2018-03-20T07:23:43.747Z,49.03
2018-03-20T07:26:11.021Z,33.67
2018-03-20T07:28:37.440Z,61.27
2018-03-20T07:31:04.580Z,45.73
2018-03-20T07:33:31.106Z,14.90
2018-03-20T07:35:58.277Z,74.90
2018-03-20T07:38:25.432Z,21.33
2018-03-20T07:40:51.863Z,16.83
2018-03-20T07:43:18.291Z,59.20
2018-03-20T07:45:44.682Z,17.30
2018-03-20T07:48:11.105Z,19.63
2018-03-20T07:50:38.116Z,35.80
2018-03-20T07:53:05.252Z,13.70
2018-03-20T07:55:31.695Z,14.97
2018-03-20T07:57:58.167Z,18.33
2018-03-20T08:00:24.584Z,15.20
2018-03-20T08:02:51.724Z,18.93
2018-03-20T08:05:18.195Z,20.03
2018-03-20T08:07:45.483Z,18.73
2018-03-20T08:10:12.654Z,15.27
2018-03-20T08:12:39.846Z,17.60
2018-03-20T08:15:06.265Z,13.93
2018-03-20T08:17:32.739Z,14.17
2018-03-20T08:20:00.526Z,13.33
2018-03-20T08:22:26.951Z,15.07
2018-03-20T08:24:53.387Z,13.53
2018-03-20T08:27:20.415Z,15.20
2018-03-20T08:29:46.858Z,14.10
2018-03-20T08:32:13.298Z,35.42
2018-03-20T08:34:40.441Z,16.20
2018-03-20T08:37:06.840Z,12.70
2018-03-20T08:39:33.994Z,23.27
2018-03-20T08:42:01.147Z,17.35
2018-03-20T08:44:27.557Z,23.90
2018-03-20T08:46:53.953Z,13.57
2018-03-20T08:49:20.455Z,17.10
2018-03-20T08:51:46.916Z,14.27
2018-03-20T08:54:13.354Z,16.55
2018-03-20T08:56:40.567Z,14.70
2018-03-20T08:59:07.098Z,13.77
2018-03-20T09:01:34.285Z,14.18
2018-03-20T09:04:00.737Z,12.02
2018-03-20T09:06:27.874Z,33.80
2018-03-20T09:08:56.161Z,19.77
2018-03-20T09:11:22.652Z,13.30
2018-03-20T09:13:49.797Z,14.73
2018-03-20T09:16:16.270Z,15.07
2018-03-20T09:18:43.464Z,14.68
2018-03-20T09:21:09.862Z,17.23
2018-03-20T09:23:36.320Z,14.15
2018-03-20T09:26:02.825Z,26.05
2018-03-20T09:28:30.007Z,17.20
2018-03-20T09:30:56.399Z,16.27
2018-03-20T09:33:22.869Z,17.00
2018-03-20T09:35:49.464Z,16.15
2018-03-20T09:38:16.576Z,18.65
2018-03-20T09:40:43.004Z,22.35
2018-03-20T09:43:09.430Z,12.70
2018-03-20T09:45:36.578Z,18.60
2018-03-20T09:48:03.015Z,21.73
2018-03-20T09:50:29.439Z,12.07
2018-03-20T09:52:56.191Z,12.68
2018-03-20T09:55:23.349Z,18.02
2018-03-20T09:57:50.530Z,13.07
2018-03-20T10:00:17.683Z,13.15
2018-03-20T10:02:44.864Z,12.27
2018-03-20T10:05:11.293Z,14.70
2018-03-20T10:07:37.745Z,13.57
2018-03-20T10:10:04.152Z,18.95
2018-03-20T10:12:31.318Z,9.82
2018-03-20T10:14:58.491Z,9.60
2018-03-20T10:17:24.960Z,10.68
2018-03-20T10:19:51.396Z,16.80
2018-03-20T10:22:18.549Z,15.10
2018-03-20T10:24:44.984Z,9.20
2018-03-20T10:27:11.388Z,8.95
2018-03-20T10:29:38.577Z,10.27
2018-03-20T10:32:05.063Z,10.25
2018-03-20T10:34:31.581Z,10.00
2018-03-20T10:36:58.051Z,15.55
2018-03-20T10:39:24.500Z,13.43
2018-03-20T10:41:50.912Z,9.63
2018-03-20T10:44:17.429Z,14.32
2018-03-20T10:46:43.902Z,17.87
2018-03-20T10:49:10.339Z,12.45
2018-03-20T10:51:36.741Z,14.98
2018-03-20T10:54:04.146Z,9.65
2018-03-20T10:56:31.419Z,13.10
2018-03-20T10:58:58.585Z,9.43
2018-03-20T11:01:31.291Z,9.93
2018-03-20T11:03:57.778Z,13.43
2018-03-20T11:06:24.214Z,9.75
2018-03-20T11:08:50.746Z,17.95
2018-03-20T11:11:18.452Z,10.52
2018-03-20T11:13:44.898Z,11.75
2018-03-20T11:16:12.171Z,25.85
2018-03-20T11:18:39.974Z,11.20
2018-03-20T11:21:06.455Z,9.50
2018-03-20T11:23:32.907Z,11.90
2018-03-20T11:25:59.320Z,26.80
2018-03-20T11:28:26.486Z,12.70
2018-03-20T11:30:53.672Z,9.15
2018-03-20T11:33:21.372Z,9.88
2018-03-20T11:35:48.040Z,9.55
2018-03-20T11:38:14.480Z,6.97
2018-03-20T11:40:40.896Z,11.98
2018-03-20T11:43:07.793Z,11.15
2018-03-20T11:45:34.257Z,8.35
2018-03-20T11:48:00.809Z,11.30
2018-03-20T11:50:28.388Z,11.10
2018-03-20T11:52:54.848Z,10.30
2018-03-20T11:55:22.018Z,11.52
2018-03-20T11:57:49.166Z,8.75
2018-03-20T12:00:15.633Z,8.60
2018-03-20T12:02:42.796Z,16.50
2018-03-20T12:05:09.249Z,7.97
2018-03-20T12:07:42.565Z,10.20
2018-03-20T12:10:09.702Z,9.35
2018-03-20T12:12:36.153Z,10.80
2018-03-20T12:15:02.674Z,9.02
2018-03-20T12:17:29.100Z,11.85
2018-03-20T12:19:55.538Z,11.50
2018-03-20T12:22:22.001Z,14.98
2018-03-20T12:24:48.558Z,9.45
2018-03-20T12:27:14.977Z,8.45
2018-03-20T12:29:41.465Z,10.07
2018-03-20T12:32:07.963Z,16.10
2018-03-20T12:34:35.760Z,12.32
2018-03-20T12:37:02.308Z,9.18
2018-03-20T12:39:29.452Z,9.18
2018-03-20T12:41:55.880Z,12.70
2018-03-20T12:44:22.327Z,12.50
2018-03-20T12:46:48.738Z,15.00
2018-03-20T12:49:15.189Z,14.90
2018-03-20T12:51:42.353Z,10.15
2018-03-20T12:54:08.973Z,10.32
2018-03-20T12:56:35.383Z,21.17
2018-03-20T12:59:02.765Z,11.70
2018-03-20T13:01:29.979Z,17.33
2018-03-20T13:03:56.412Z,13.38
2018-03-20T13:06:22.856Z,11.90
2018-03-20T13:08:49.282Z,13.02
2018-03-20T13:11:15.704Z,9.65
2018-03-20T13:13:42.105Z,12.55
2018-03-20T13:16:09.391Z,11.57
2018-03-20T13:18:36.553Z,12.00
2018-03-20T13:21:03.952Z,12.90
2018-03-20T13:23:30.890Z,23.62
2018-03-20T13:25:58.061Z,19.08
2018-03-20T13:28:24.637Z,20.17
2018-03-20T13:30:51.807Z,14.70
2018-03-20T13:33:18.976Z,16.10
2018-03-20T13:35:46.123Z,17.20
2018-03-20T13:38:12.580Z,14.85
2018-03-20T13:40:39.100Z,13.95
2018-03-20T13:43:05.756Z,15.23
2018-03-20T13:45:32.494Z,17.40
2018-03-20T13:47:59.664Z,13.88
2018-03-20T13:50:26.867Z,14.40
2018-03-20T13:52:53.278Z,15.00
2018-03-20T13:55:20.509Z,16.00
2018-03-20T13:57:46.978Z,14.65
2018-03-20T14:00:13.467Z,21.35
2018-03-20T14:02:40.651Z,14.32
2018-03-20T14:05:07.926Z,13.70
2018-03-20T14:07:35.111Z,13.43
2018-03-20T14:10:01.657Z,16.27
2018-03-20T14:12:28.624Z,12.37
2018-03-20T14:14:55.091Z,16.45
2018-03-20T14:17:21.743Z,15.23
2018-03-20T14:19:48.898Z,19.05
2018-03-20T14:22:16.187Z,15.73
2018-03-20T14:24:43.353Z,17.15
2018-03-20T14:27:10.517Z,15.83
2018-03-20T14:29:37.686Z,14.73
2018-03-20T14:32:05.054Z,12.55
2018-03-20T14:34:31.649Z,12.85
2018-03-20T14:36:58.103Z,13.95
2018-03-20T14:39:24.862Z,14.68
2018-03-20T14:41:51.296Z,14.23
2018-03-20T14:44:18.526Z,13.90
2018-03-20T14:46:44.933Z,20.08
2018-03-20T14:49:12.116Z,14.13
2018-03-20T14:51:39.314Z,13.73
2018-03-20T14:54:05.735Z,13.10
2018-03-20T14:56:32.235Z,14.07
2018-03-20T14:58:58.758Z,14.50
2018-03-20T15:01:25.204Z,20.70
2018-03-20T15:03:52.384Z,17.98
2018-03-20T15:06:20.207Z,15.88
2018-03-20T15:08:46.652Z,18.60
2018-03-20T15:11:14.909Z,19.05
2018-03-20T15:13:42.510Z,18.98
2018-03-20T15:16:10.640Z,17.95
2018-03-20T15:18:37.673Z,33.67
2018-03-20T15:21:04.178Z,31.73
2018-03-20T15:23:30.643Z,32.08
2018-03-20T15:25:57.120Z,27.48
2018-03-20T15:28:23.549Z,28.42
2018-03-20T15:30:50.012Z,34.28
2018-03-20T15:33:16.459Z,25.88
2018-03-20T15:35:42.936Z,27.80
2018-03-20T15:38:09.364Z,28.42
2018-03-20T15:40:35.816Z,27.75
2018-03-20T15:43:02.247Z,30.77
2018-03-20T15:45:28.655Z,27.90
2018-03-20T15:47:55.109Z,27.90
2018-03-20T15:50:22.314Z,29.65
2018-03-20T15:52:49.547Z,30.45
2018-03-20T15:55:15.987Z,31.75
2018-03-20T15:57:43.190Z,31.95
2018-03-20T16:00:09.778Z,27.67
2018-03-20T16:02:36.277Z,32.30
2018-03-20T16:05:02.772Z,30.98
2018-03-20T16:07:29.944Z,29.25
2018-03-20T16:09:57.097Z,31.23
2018-03-20T16:12:27.073Z,33.65
2018-03-20T16:14:54.215Z,30.60
2018-03-20T16:17:20.657Z,31.75
2018-03-20T16:19:47.083Z,34.38
2018-03-20T16:22:13.509Z,34.03
2018-03-20T16:24:40.934Z,38.00
2018-03-20T16:27:07.339Z,38.13
2018-03-20T16:29:34.585Z,42.55
2018-03-20T16:32:01.046Z,44.85
2018-03-20T16:34:28.211Z,42.08
2018-03-20T16:36:54.704Z,45.63
2018-03-20T16:39:21.853Z,49.33
2018-03-20T16:41:49.022Z,48.20
2018-03-20T16:44:15.456Z,50.00
2018-03-20T16:46:41.837Z,55.42
2018-03-20T16:49:08.237Z,49.13
2018-03-20T16:51:34.637Z,55.15
2018-03-20T16:54:01.077Z,70.10
2018-03-20T16:56:27.644Z,41.17
2018-03-20T16:58:54.853Z,35.92
2018-03-20T17:01:22.030Z,39.65
2018-03-20T17:03:49.200Z,131.82
2018-03-20T17:06:16.381Z,38.58
2018-03-20T17:08:42.841Z,31.62
2018-03-20T17:11:09.295Z,33.38
2018-03-20T17:13:35.707Z,30.30
2018-03-20T17:16:02.179Z,33.38
2018-03-20T17:18:29.386Z,31.25
2018-03-20T17:20:55.869Z,32.03
2018-03-20T17:23:22.617Z,29.70
2018-03-20T17:25:49.452Z,33.03
2018-03-20T17:28:16.727Z,31.75
2018-03-20T17:30:44.041Z,32.30
2018-03-20T17:33:10.608Z,34.00
2018-03-20T17:35:37.101Z,56.20
2018-03-20T17:38:04.393Z,37.22
2018-03-20T17:40:31.576Z,88.30
2018-03-20T17:42:58.532Z,129.85
2018-03-20T17:45:25.013Z,61.22
2018-03-20T17:47:51.992Z,81.20
2018-03-20T17:50:18.397Z,56.22
2018-03-20T17:52:44.805Z,39.05
2018-03-20T17:55:11.267Z,54.88
2018-03-20T17:57:38.418Z,44.38
2018-03-20T18:00:06.794Z,36.78
2018-03-20T18:02:34.891Z,37.13
2018-03-20T18:05:02.464Z,29.60
2018-03-20T18:07:28.866Z,30.08
2018-03-20T18:09:55.485Z,28.90
2018-03-20T18:12:24.442Z,28.17
2018-03-20T18:14:51.157Z,25.20
2018-03-20T18:17:18.739Z,25.75
2018-03-20T18:19:45.399Z,27.52
2018-03-20T18:22:13.534Z,28.55
2018-03-20T18:24:39.981Z,29.42
2018-03-20T18:27:06.445Z,57.95
2018-03-20T18:29:32.892Z,60.30
2018-03-20T18:31:59.350Z,36.67
2018-03-20T18:34:25.792Z,45.20
2018-03-20T18:36:52.234Z,36.85
2018-03-20T18:39:19.412Z,48.70
2018-03-20T18:41:46.071Z,52.17
2018-03-20T18:44:13.175Z,41.15
2018-03-20T18:46:40.258Z,28.20
2018-03-20T18:49:07.590Z,30.48
2018-03-20T18:51:34.445Z,30.25
2018-03-20T18:54:01.731Z,34.08
2018-03-20T18:56:28.177Z,43.13
2018-03-20T18:58:55.555Z,33.35
2018-03-20T19:01:21.978Z,29.30
2018-03-20T19:03:48.791Z,30.45
2018-03-20T19:06:15.432Z,31.48
2018-03-20T19:08:42.707Z,28.80
2018-03-20T19:11:10.647Z,30.75
2018-03-20T19:13:37.157Z,32.33
2018-03-20T19:16:03.710Z,28.58
2018-03-20T19:18:30.380Z,29.60
2018-03-20T19:21:01.401Z,29.63
2018-03-20T19:23:28.651Z,30.88
2018-03-20T19:25:55.732Z,27.37
2018-03-20T19:28:22.144Z,31.90
2018-03-20T19:30:48.628Z,35.90
2018-03-20T19:33:15.044Z,34.13
2018-03-20T19:35:42.316Z,28.67
2018-03-20T19:38:08.796Z,28.52
2018-03-20T19:40:35.263Z,31.40
2018-03-20T19:43:01.723Z,30.83
2018-03-20T19:45:28.213Z,31.37
2018-03-20T19:47:54.711Z,33.17
2018-03-20T19:50:21.265Z,33.90
2018-03-20T19:52:47.852Z,32.55
2018-03-20T19:55:14.329Z,64.85
2018-03-20T19:57:40.790Z,28.87
2018-03-20T20:00:08.122Z,32.95
2018-03-20T20:02:34.531Z,31.37
2018-03-20T20:05:00.977Z,37.08
2018-03-20T20:07:27.421Z,25.02
2018-03-20T20:09:53.877Z,26.75
2018-03-20T20:12:20.595Z,51.53
2018-03-20T20:14:47.867Z,24.92
2018-03-20T20:17:15.560Z,23.95
2018-03-20T20:19:42.042Z,29.67
2018-03-20T20:22:08.566Z,22.52
2018-03-20T20:24:35.029Z,22.13
2018-03-20T20:27:01.523Z,22.42
2018-03-20T20:29:27.985Z,19.67
2018-03-20T20:31:55.720Z,20.75
2018-03-20T20:34:22.277Z,18.73
2018-03-20T20:36:49.459Z,20.17
2018-03-20T20:39:15.891Z,17.77
2018-03-20T20:41:43.098Z,20.12
2018-03-20T20:44:09.513Z,15.30
2018-03-20T20:46:35.991Z,17.70
2018-03-20T20:49:02.525Z,16.37
2018-03-20T20:51:28.950Z,16.67
2018-03-20T20:53:55.407Z,14.20
2018-03-20T20:56:22.651Z,17.30
2018-03-20T20:58:49.100Z,14.93
2018-03-20T21:01:15.599Z,16.37
2018-03-20T21:03:43.000Z,18.05
2018-03-20T21:06:09.491Z,18.45
2018-03-20T21:08:35.943Z,17.15
2018-03-20T21:11:02.405Z,16.58
2018-03-20T21:13:28.955Z,16.90
2018-03-20T21:15:55.614Z,12.57
2018-03-20T21:18:22.276Z,17.02
2018-03-20T21:20:49.450Z,15.55
2018-03-20T21:23:16.764Z,12.10
2018-03-20T21:25:43.214Z,13.90
2018-03-20T21:28:09.645Z,12.43
2018-03-20T21:30:36.132Z,12.02
2018-03-20T21:33:03.064Z,13.75
2018-03-20T21:35:29.586Z,12.75
2018-03-20T21:37:56.083Z,10.63
2018-03-20T21:40:22.733Z,11.25
2018-03-20T21:42:50.590Z,11.75
2018-03-20T21:45:17.004Z,14.32
2018-03-20T21:47:43.776Z,11.63
2018-03-20T21:50:11.728Z,11.57
2018-03-20T21:52:38.697Z,11.35
2018-03-20T21:55:06.074Z,13.57
2018-03-20T21:57:32.630Z,10.20
2018-03-20T21:59:59.856Z,13.48
2018-03-20T22:02:26.363Z,11.82
2018-03-20T22:04:53.636Z,10.70
2018-03-20T22:07:20.915Z,8.57
2018-03-20T22:09:47.352Z,8.55
2018-03-20T22:12:14.574Z,11.05
2018-03-20T22:14:40.971Z,8.10
2018-03-20T22:17:07.413Z,9.05
2018-03-20T22:19:33.895Z,9.85
2018-03-20T22:22:01.067Z,8.85
2018-03-20T22:24:28.296Z,7.78
2018-03-20T22:26:56.156Z,6.43
2018-03-20T22:29:22.594Z,7.18
2018-03-20T22:31:49.806Z,4.80
2018-03-20T22:34:16.246Z,6.82
2018-03-20T22:36:42.737Z,5.68
2018-03-20T22:39:09.139Z,10.88
2018-03-20T22:41:36.350Z,5.90
2018-03-20T22:44:02.853Z,7.95
2018-03-20T22:46:30.042Z,7.32
2018-03-20T22:48:56.527Z,6.75
2018-03-20T22:51:22.967Z,8.05
2018-03-20T22:53:49.513Z,9.20
2018-03-20T22:56:16.068Z,8.00
2018-03-20T22:58:43.253Z,6.43
2018-03-20T23:01:09.763Z,8.40
2018-03-20T23:03:36.259Z,6.37
2018-03-20T23:06:03.424Z,6.90
2018-03-20T23:08:30.611Z,6.10
2018-03-20T23:10:57.057Z,8.85
2018-03-20T23:13:24.234Z,9.02
2018-03-20T23:15:50.686Z,7.32
2018-03-20T23:18:17.166Z,8.38
2018-03-20T23:20:43.703Z,8.02
2018-03-20T23:23:10.923Z,12.65
2018-03-20T23:25:37.413Z,6.68
2018-03-20T23:28:04.614Z,7.78
2018-03-20T23:30:31.149Z,13.82
2018-03-20T23:32:58.380Z,7.05
2018-03-20T23:35:24.835Z,8.88
2018-03-20T23:37:51.267Z,8.32
2018-03-20T23:40:17.679Z,7.40
2018-03-20T23:42:45.635Z,7.10
2018-03-20T23:45:12.043Z,9.20
2018-03-20T23:47:39.704Z,8.90
2018-03-20T23:50:06.296Z,6.82
2018-03-20T23:52:32.850Z,9.82
2018-03-20T23:54:59.296Z,6.20
2018-03-20T23:57:26.456Z,8.55
2018-03-20T23:59:52.876Z,8.50
